Time;durP1;ratioP1;P1;durP2;ratioP2;P2;SDS_P1;SDS_P2;PMS_P1;PMS_P2;Temp;Humidity;BMP_temperature;BMP_pressure;BME280_temperature;BME280_humidity;BME280_pressure;Samples;Min_cycle;Max_cycle;Signal;HPM_P1;HPM_P2
2023/11/21 12:31:54;;;;;;;;;;;;;;;;;;;;;
2023/11/21 12:35:13;;;;;;;;;;;;;;;;;;;;;
2023/11/21 13:09:46;;;;;;;;;6.00;6.00;;;;;13.93;93.62;101389.38;4839995;29;45534;-66
2023/11/21 13:17:10;;;;;;;;;;;;;;;;;;;;;
2023/11/21 13:26:55;;;;;;;;;;;;;;;;;;;;;
2023/11/21 13:33:37;;;;;;;;;;;;;;;;;;;;;
2023/11/21 13:39:45;;;;;;;;;;;;;;;;;;;;;
2023/11/21 13:52:03;;;;;;;;;;;;;;;;;;;;;
2023/11/21 14:16:00;;;;;;;;;3.25;2.00;;;;;14.18;90.95;101455.63;4888010;28;45716;-66
2023/11/21 14:19:11;;;;;;;;;;;;;;;;;;;;;
2023/11/21 14:21:57;;;;;;;;;1.25;1.25;;;;;14.00;90.41;101422.25;4902082;28;75142;-67
2023/11/21 14:24:24;;;;;;;;;3.50;3.50;;;;;14.08;90.85;101447.00;4912114;28;45517;-68
2023/11/21 14:26:54;;;;;;;;;4.25;4.25;;;;;13.86;90.90;101403.97;4909934;28;45498;-67
2023/11/21 14:29:37;;;;;;;;;3.75;3.75;;;;;14.02;91.09;101431.16;4906033;28;45412;-67
2023/11/21 14:32:09;;;;;;;;;7.00;5.25;;;;;14.17;91.73;101448.53;4916625;28;46685;-66
2023/11/21 14:34:42;;;;;;;;;2.00;0.50;;;;;14.29;90.94;101468.69;4921499;28;45360;-66
2023/11/21 14:37:16;;;;;;;;;8.50;4.00;;;;;14.15;91.17;101447.66;4921420;28;45476;-67
2023/11/21 14:39:54;;;;;;;;;;;;;;;;;;;;;
2023/11/21 14:42:25;;;;;;;;;4.00;2.75;;;;;14.30;91.71;101465.94;4918868;28;75266;-67
2023/11/21 14:44:51;;;;;;;;;4.00;3.00;;;;;14.13;92.02;101436.97;4915742;28;45482;-66
2023/11/21 14:47:27;;;;;;;;;2.00;2.00;;;;;14.31;91.64;101478.41;4920237;28;45453;-67
2023/11/21 14:50:03;;;;;;;;;;;;;;;;;;;;;
2023/11/21 14:52:52;;;;;;;;;;;;;;;;;;;;;
2023/11/21 14:56:07;;;;;;;;;;;;;;;;;;;;;
2023/11/21 14:58:31;;;;;;;;;2.25;2.00;;;;;14.12;90.31;101486.25;4909638;28;45646;-67
2023/11/21 15:00:58;;;;;;;;;2.00;2.00;;;;;14.07;90.71;101482.88;4920401;28;45485;-67
2023/11/21 15:05:59;;;;;;;;;3.00;2.00;;;;;13.96;90.10;101471.63;4918574;28;45617;-66
2023/11/21 15:08:31;;;;;;;;;1.50;1.50;;;;;14.13;90.38;101492.50;4935743;28;45368;-66
2023/11/21 15:11:02;;;;;;;;;1.25;1.00;;;;;14.02;90.94;101482.16;4920549;28;45600;-67
2023/11/21 15:13:31;;;;;;;;;2.00;2.00;;;;;14.25;91.06;101521.63;4921736;28;45547;-66
2023/11/21 15:16:07;;;;;;;;;3.25;3.00;;;;;14.11;90.65;101505.09;4936221;28;45476;-67
2023/11/21 15:18:40;;;;;;;;;3.00;2.00;;;;;14.11;90.11;101499.75;4909324;28;45411;-66
2023/11/21 15:21:17;;;;;;;;;;;;;;;;;;;;;
2023/11/21 15:23:44;;;;;;;;;4.25;2.00;;;;;14.24;90.49;101522.53;4920514;28;75185;-67
2023/11/21 15:26:22;;;;;;;;;;;;;;;;;;;;;
2023/11/21 15:28:50;;;;;;;;;3.00;2.50;;;;;14.18;90.32;101520.06;4914945;28;68852;-66
2023/11/21 15:31:20;;;;;;;;;2.00;1.00;;;;;14.15;90.67;101509.44;4915407;28;45429;-66
2023/11/21 15:34:02;;;;;;;;;;;;;;;;;;;;;
2023/11/21 15:36:30;;;;;;;;;2.00;2.00;;;;;14.28;90.11;101545.66;4905954;28;73068;-66
2023/11/21 15:38:58;;;;;;;;;2.75;2.75;;;;;14.23;89.60;101547.63;4929616;28;45614;-66
2023/11/21 15:41:27;;;;;;;;;1.75;0.50;;;;;14.09;89.94;101535.56;4921696;28;46201;-66
2023/11/21 15:43:52;;;;;;;;;1.00;1.00;;;;;14.29;89.69;101562.66;4909871;28;45682;-66
2023/11/21 15:46:27;;;;;;;;;;;;;;;;;;;;;
2023/11/21 15:48:55;;;;;;;;;0.75;0.75;;;;;13.95;89.99;101516.38;4908845;28;68911;-66
2023/11/21 15:51:34;;;;;;;;;3.00;2.25;;;;;14.05;89.71;101533.06;4918026;28;45518;-66
2023/11/21 15:54:04;;;;;;;;;1.00;1.00;;;;;14.09;90.02;101543.59;4920374;28;45460;-66
2023/11/21 15:56:29;;;;;;;;;2.00;2.00;;;;;14.13;90.25;101559.63;4915821;28;45468;-66
2023/11/21 15:59:03;;;;;;;;;1.50;1.00;;;;;14.16;90.12;101565.75;4909154;28;45607;-67
2023/11/21 16:01:29;;;;;;;;;2.00;1.50;;;;;14.34;89.96;101587.56;4921034;28;45465;-66
2023/11/21 16:03:54;;;;;;;;;1.00;1.00;;;;;13.99;90.25;101534.13;4937944;23;45346;-88
2023/11/21 16:06:20;;;;;;;;;1.00;1.00;;;;;14.34;89.88;101596.47;4940282;28;45710;-88
2023/11/21 16:08:45;;;;;;;;;2.00;1.00;;;;;13.98;90.07;101535.06;4922281;28;45284;-87
2023/11/21 16:11:12;;;;;;;;;3.00;1.00;;;;;14.35;89.90;101609.00;4915372;28;45196;-88
2023/11/21 16:13:38;;;;;;;;;2.00;2.00;;;;;14.04;89.80;101567.06;4915999;28;45632;-87
2023/11/21 16:16:04;;;;;;;;;2.00;2.00;;;;;14.00;90.24;101561.84;4906757;28;45425;-87
2023/11/21 16:18:30;;;;;;;;;2.00;2.00;;;;;13.95;89.74;101570.06;4907941;28;45440;-84
2023/11/21 16:20:55;;;;;;;;;2.00;2.00;;;;;14.08;89.53;101606.31;4923050;28;45575;-87
2023/11/21 16:23:20;;;;;;;;;1.00;1.00;;;;;13.95;89.95;101585.28;4918805;28;46419;-87
2023/11/21 16:25:54;;;;;;;;;1.75;0.00;;;;;13.75;89.74;101548.34;4929005;28;45480;-86
2023/11/21 16:28:20;;;;;;;;;1.00;1.00;;;;;13.83;90.07;101573.13;4922731;28;45642;-86
2023/11/21 16:30:46;;;;;;;;;2.00;0.75;;;;;13.89;90.37;101586.34;4922736;28;45449;-87
2023/11/21 16:33:11;;;;;;;;;1.00;1.00;;;;;13.95;90.81;101594.22;4939301;28;48276;-86
2023/11/21 16:35:39;;;;;;;;;1.50;1.50;;;;;14.07;90.47;101623.34;4906791;28;45282;-86
2023/11/21 16:38:04;;;;;;;;;1.50;1.00;;;;;13.96;90.37;101605.81;4936910;28;45459;-87
2023/11/21 16:40:30;;;;;;;;;1.00;1.00;;;;;14.14;90.54;101634.75;4918860;28;46702;-86
2023/11/21 16:42:56;;;;;;;;;1.00;1.00;;;;;13.99;90.64;101616.47;4920044;28;45409;-86
2023/11/21 16:45:22;;;;;;;;;1.75;1.75;;;;;13.77;90.59;101582.28;4916809;28;45501;-86
2023/11/21 16:47:48;;;;;;;;;2.00;2.00;;;;;13.97;90.69;101621.00;4916986;28;46369;-87
2023/11/21 16:50:13;;;;;;;;;1.75;1.75;;;;;13.81;90.57;101601.84;4929639;28;45344;-87
2023/11/21 16:52:41;;;;;;;;;1.75;1.75;;;;;14.05;90.93;101649.34;4921691;28;45803;-86
2023/11/21 16:55:08;;;;;;;;;3.00;1.25;;;;;13.92;90.67;101631.03;4936738;28;45271;-86
2023/11/21 16:57:37;;;;;;;;;1.25;1.25;;;;;14.04;90.64;101654.78;4938136;28;45248;-87
2023/11/21 17:00:06;;;;;;;;;3.25;2.00;;;;;14.07;90.43;101662.72;4920826;28;45496;-87
2023/11/21 17:02:32;;;;;;;;;2.00;2.00;;;;;14.19;90.08;101693.69;4918982;28;48052;-86
2023/11/21 17:04:58;;;;;;;;;2.00;2.00;;;;;14.12;90.03;101684.94;4924699;28;45252;-86
2023/11/21 17:07:23;;;;;;;;;3.00;3.00;;;;;14.20;89.96;101698.09;4918341;28;45429;-86
2023/11/21 17:09:49;;;;;;;;;2.50;2.00;;;;;14.13;89.71;101696.56;4925751;28;51791;-86
2023/11/21 17:12:18;;;;;;;;;1.25;1.25;;;;;14.04;89.99;101682.50;4934133;28;47087;-86
2023/11/21 17:14:46;;;;;;;;;3.00;2.25;;;;;14.12;89.89;101700.19;4941067;28;45549;-86
2023/11/21 17:17:13;;;;;;;;;3.00;3.00;;;;;14.22;89.87;101717.75;4914403;28;45610;-86
2023/11/21 17:19:39;;;;;;;;;2.00;2.00;;;;;14.12;89.67;101706.41;4929534;28;45369;-86
2023/11/21 17:22:05;;;;;;;;;3.00;3.00;;;;;14.12;89.59;101706.41;4921156;28;46278;-86
2023/11/21 17:24:32;;;;;;;;;2.50;2.00;;;;;14.12;89.29;101717.16;4908753;28;45517;-86
2023/11/21 17:26:58;;;;;;;;;2.00;2.00;;;;;13.95;89.63;101690.84;4936286;28;45393;-86
2023/11/21 17:29:24;;;;;;;;;3.00;2.75;;;;;14.03;88.97;101693.28;4925397;28;45763;-86
2023/11/21 17:31:50;;;;;;;;;3.25;3.25;;;;;14.04;88.89;101714.69;4925338;28;46100;-87
2023/11/21 17:34:18;;;;;;;;;3.00;3.00;;;;;14.15;89.34;101746.59;4919232;28;45444;-87
2023/11/21 17:36:44;;;;;;;;;3.00;3.00;;;;;14.00;88.40;101725.56;4924795;28;45434;-86
2023/11/21 17:39:10;;;;;;;;;3.00;3.00;;;;;14.04;88.69;101738.00;4916234;28;45524;-86
2023/11/21 17:41:36;;;;;;;;;4.00;4.00;;;;;14.00;89.22;101739.91;4916002;28;45364;-86
2023/11/21 17:44:03;;;;;;;;;3.75;3.75;;;;;13.96;89.33;101730.16;4941454;28;44899;-86
2023/11/21 17:46:29;;;;;;;;;2.50;2.50;;;;;13.97;89.38;101742.69;4918436;28;45500;-86
2023/11/21 17:48:55;;;;;;;;;6.00;4.00;;;;;14.06;88.89;101753.13;4924604;28;45456;-87
2023/11/21 17:51:20;;;;;;;;;3.25;3.25;;;;;14.11;89.06;101755.66;4923648;28;45424;-87
2023/11/21 17:53:46;;;;;;;;;4.00;4.00;;;;;13.98;89.08;101733.72;4912331;28;45463;-87
2023/11/21 17:56:18;;;;;;;;;4.00;4.00;;;;;13.93;88.90;101735.63;4918786;28;45489;-88
2023/11/21 17:58:45;;;;;;;;;4.75;3.00;;;;;13.72;88.72;101688.88;4935251;28;45433;-87
2023/11/21 18:01:10;;;;;;;;;4.75;4.75;;;;;13.99;89.11;101743.50;4921609;28;46356;-85
2023/11/21 18:03:37;;;;;;;;;6.75;5.75;;;;;14.01;88.85;101749.69;4938085;28;45388;-89
2023/11/21 18:06:03;;;;;;;;;5.50;4.50;;;;;14.16;89.07;101777.88;4919807;28;45695;-89
2023/11/21 18:08:28;;;;;;;;;4.00;4.00;;;;;14.05;89.22;101754.06;4912497;28;45311;-89
2023/11/21 18:10:54;;;;;;;;;6.25;4.00;;;;;13.98;89.11;101757.88;4921793;28;46289;-89
2023/11/21 18:13:19;;;;;;;;;3.00;3.00;;;;;14.14;89.24;101786.94;4914231;28;45290;-88
2023/11/21 18:15:47;;;;;;;;;5.25;5.25;;;;;14.02;89.27;101775.63;4938810;28;45465;-88
2023/11/21 18:18:12;;;;;;;;;5.50;5.00;;;;;14.05;88.79;101775.53;4936716;28;45465;-89
2023/11/21 18:20:38;;;;;;;;;1.00;1.00;;;;;13.99;88.76;101781.09;4930114;28;45467;-88
2023/11/21 18:23:04;;;;;;;;;6.25;6.00;;;;;14.09;89.13;101798.66;4927171;28;45315;-89
2023/11/21 18:25:30;;;;;;;;;4.00;3.00;;;;;14.07;88.94;101795.16;4933717;28;45501;-89
2023/11/21 18:27:55;;;;;;;;;4.00;4.00;;;;;13.93;88.29;101773.19;4930551;28;45828;-89
2023/11/21 18:30:21;;;;;;;;;3.50;3.50;;;;;14.00;88.28;101811.47;4927886;28;47239;-89
2023/11/21 18:32:48;;;;;;;;;4.00;4.00;;;;;13.90;88.57;101781.38;4929440;28;45425;-89
2023/11/21 18:35:14;;;;;;;;;6.00;5.00;;;;;14.03;89.22;101809.63;4925057;28;45543;-83
2023/11/21 18:37:39;;;;;;;;;6.50;5.75;;;;;14.00;89.15;101807.00;4926535;28;45122;-86
2023/11/21 18:40:05;;;;;;;;;7.00;5.25;;;;;14.06;88.92;101827.41;4911397;28;56351;-86
2023/11/21 18:42:30;;;;;;;;;7.50;5.50;;;;;14.01;89.18;101830.22;4919612;28;45377;-87
2023/11/21 18:44:55;;;;;;;;;6.75;6.25;;;;;13.87;88.68;101810.97;4923746;28;45359;-88
2023/11/21 18:47:22;;;;;;;;;6.75;5.00;;;;;13.76;88.73;101811.28;4933735;28;45397;-88
2023/11/21 18:49:48;;;;;;;;;4.25;4.25;;;;;13.79;88.45;101813.00;4931740;28;47717;-88
2023/11/21 18:52:14;;;;;;;;;6.75;6.00;;;;;13.74;88.70;101815.81;4924456;28;45718;-87
2023/11/21 18:54:42;;;;;;;;;7.00;5.25;;;;;13.81;88.81;101829.94;4925033;28;45486;-88
2023/11/21 18:57:08;;;;;;;;;5.75;5.50;;;;;13.64;88.94;101790.16;4922193;28;45489;-88
2023/11/21 18:59:34;;;;;;;;;6.00;6.00;;;;;13.68;88.77;101787.38;4932172;28;46355;-87
2023/11/21 19:02:01;;;;;;;;;5.25;5.25;;;;;13.98;88.79;101848.22;4922250;28;45548;-88
2023/11/21 19:04:27;;;;;;;;;7.75;7.00;;;;;13.88;88.88;101831.50;4912674;28;45418;-89
2023/11/21 19:06:59;;;;;;;;;4.50;4.50;;;;;13.93;88.87;101834.06;4935176;28;45530;-88
2023/11/21 19:09:24;;;;;;;;;8.25;6.00;;;;;14.02;89.08;101844.56;4945738;28;47186;-89
2023/11/21 19:11:49;;;;;;;;;8.25;7.00;;;;;13.90;89.19;101822.50;4933133;28;48210;-89
2023/11/21 19:14:16;;;;;;;;;9.25;6.00;;;;;13.83;88.83;101810.19;4928344;28;45530;-89
2023/11/21 19:16:41;;;;;;;;;7.00;6.00;;;;;13.89;88.62;101827.91;4921657;28;45424;-88
2023/11/21 19:19:07;;;;;;;;;5.25;5.25;;;;;13.96;88.78;101845.59;4919877;28;65535;-90
2023/11/21 19:21:32;;;;;;;;;5.00;4.00;;;;;13.98;88.79;101859.88;4917785;28;45390;-89
2023/11/21 19:23:58;;;;;;;;;6.00;6.00;;;;;13.85;88.44;101837.00;4923966;28;45440;-88
2023/11/21 19:26:24;;;;;;;;;8.00;7.75;;;;;13.95;88.68;101857.28;4913506;28;45738;-87
2023/11/21 19:28:49;;;;;;;;;5.75;5.75;;;;;13.87;88.85;101843.19;4920887;28;48060;-85
2023/11/21 19:31:19;;;;;;;;;8.25;7.75;;;;;13.89;89.10;101846.69;4916292;28;45500;-86
2023/11/21 19:33:47;;;;;;;;;8.50;7.00;;;;;14.02;89.12;101876.78;4907904;28;45425;-86
2023/11/21 19:36:13;;;;;;;;;7.00;6.00;;;;;13.72;89.08;101831.09;4907542;28;45457;-86
2023/11/21 19:38:39;;;;;;;;;8.75;8.75;;;;;13.69;88.89;101833.84;4931915;28;47931;-86
2023/11/21 19:41:15;;;;;;;;;8.75;8.75;;;;;14.02;88.71;101898.25;4909678;28;45816;-86
2023/11/21 19:43:40;;;;;;;;;11.00;9.00;;;;;13.85;88.72;101883.50;4931346;28;45565;-86
2023/11/21 19:46:06;;;;;;;;;8.50;8.00;;;;;13.79;88.94;101861.31;4916299;28;45537;-86
2023/11/21 19:48:32;;;;;;;;;8.75;6.25;;;;;14.01;89.13;101900.03;4901844;28;45481;-87
2023/11/21 19:50:57;;;;;;;;;7.25;6.00;;;;;14.03;89.01;101906.25;4915244;28;45410;-86
2023/11/21 19:53:23;;;;;;;;;10.75;9.00;;;;;13.91;88.82;101887.78;4908317;28;45605;-87
2023/11/21 19:55:49;;;;;;;;;7.00;7.00;;;;;13.98;89.02;101909.97;4915268;28;45368;-87
2023/11/21 19:58:17;;;;;;;;;7.25;7.00;;;;;14.05;88.63;101919.63;4917030;28;47382;-87
2023/11/21 20:00:48;;;;;;;;;10.25;9.75;;;;;13.76;88.26;101877.50;4906582;28;45687;-87
2023/11/21 20:03:18;;;;;;;;;16.00;10.00;;;;;13.68;88.55;101873.22;4905206;28;47040;-87
2023/11/21 20:05:49;;;;;;;;;9.50;8.50;;;;;13.63;88.45;101868.88;4914421;28;45477;-87
2023/11/21 20:08:15;;;;;;;;;9.25;9.00;;;;;13.94;88.47;101927.09;4906943;28;45817;-87
2023/11/21 20:10:41;;;;;;;;;15.50;9.75;;;;;13.46;88.54;101855.94;4919951;28;45499;-87
2023/11/21 20:13:18;;;;;;;;;7.50;7.50;;;;;13.58;88.65;101865.44;4929200;28;45406;-87
2023/11/21 20:15:44;;;;;;;;;9.25;9.00;;;;;13.58;88.44;101871.72;4918054;28;45529;-87
2023/11/21 20:18:12;;;;;;;;;8.25;8.25;;;;;13.68;88.37;101899.16;4907479;28;46395;-88
2023/11/21 20:20:38;;;;;;;;;7.50;7.50;;;;;13.49;88.31;101869.28;4921819;28;45886;-87
2023/11/21 20:23:03;;;;;;;;;12.00;12.00;;;;;13.56;88.05;101896.81;4921651;28;45445;-87
2023/11/21 20:25:29;;;;;;;;;8.00;7.00;;;;;13.60;88.70;101912.78;4910248;28;45362;-87
2023/11/21 20:27:55;;;;;;;;;7.50;7.50;;;;;13.65;88.61;101926.97;4924479;28;45532;-88
2023/11/21 20:30:22;;;;;;;;;9.00;8.25;;;;;13.65;88.51;101923.41;4936250;28;45578;-87
2023/11/21 20:32:50;;;;;;;;;8.00;8.00;;;;;13.65;88.42;101924.28;4923313;28;45903;-87
2023/11/21 20:35:17;;;;;;;;;8.25;8.25;;;;;13.77;88.61;101941.84;4912120;28;45573;-88
2023/11/21 20:37:43;;;;;;;;;8.00;7.25;;;;;13.77;88.60;101955.28;4920064;28;47608;-87
2023/11/21 20:40:10;;;;;;;;;7.00;7.00;;;;;13.68;88.19;101944.78;4938574;28;62493;-87
2023/11/21 20:42:35;;;;;;;;;5.50;5.00;;;;;13.57;88.91;101928.97;4926112;28;45572;-87
2023/11/21 20:45:01;;;;;;;;;7.00;6.00;;;;;13.68;88.76;101951.03;4930614;28;45886;-87
2023/11/21 20:47:26;;;;;;;;;7.50;6.25;;;;;13.59;87.82;101942.34;4920853;28;45493;-88
2023/11/21 20:49:57;;;;;;;;;8.25;6.00;;;;;13.57;87.98;101947.75;4918589;28;45808;-88
2023/11/21 20:52:24;;;;;;;;;7.50;7.00;;;;;13.65;87.57;101969.91;4931412;28;45690;-88
2023/11/21 20:54:49;;;;;;;;;8.50;6.00;;;;;13.67;87.84;101970.72;4934685;28;46119;-89
2023/11/21 20:57:14;;;;;;;;;9.00;8.50;;;;;13.69;87.65;101965.31;4919177;28;53023;-87
2023/11/21 20:59:40;;;;;;;;;8.25;7.00;;;;;13.61;87.42;101952.09;4915491;28;47799;-87
2023/11/21 21:02:06;;;;;;;;;8.00;8.00;;;;;13.71;87.68;101968.84;4926456;28;50390;-88
2023/11/21 21:04:32;;;;;;;;;12.50;9.25;;;;;13.54;87.01;101953.19;4907447;28;45583;-88
2023/11/21 21:06:57;;;;;;;;;6.50;5.00;;;;;13.53;87.61;101943.38;4932669;28;47362;-87
2023/11/21 21:09:23;;;;;;;;;8.25;8.25;;;;;13.57;87.78;101946.88;4922046;28;45674;-87
2023/11/21 21:11:49;;;;;;;;;7.25;7.25;;;;;13.51;87.45;101937.16;4937231;28;45703;-87
2023/11/21 21:14:14;;;;;;;;;12.75;8.25;;;;;13.70;87.52;101973.34;4934665;28;45466;-93
2023/11/21 21:16:41;;;;;;;;;6.50;5.00;;;;;13.63;87.53;101961.00;4920437;28;45493;-87
2023/11/21 21:19:07;;;;;;;;;9.00;7.75;;;;;13.62;86.82;101974.47;4921266;28;45724;-87
2023/11/21 21:21:33;;;;;;;;;8.00;8.00;;;;;13.45;86.68;101951.63;4941224;28;45394;-87
2023/11/21 21:23:59;;;;;;;;;8.00;8.00;;;;;13.37;87.10;101950.06;4915015;28;45526;-87
2023/11/21 21:26:25;;;;;;;;;8.00;7.00;;;;;13.32;87.02;101932.25;4939016;28;47452;-86
2023/11/21 21:28:50;;;;;;;;;9.50;8.25;;;;;13.56;87.01;101966.56;4917841;28;45762;-86
2023/11/21 21:31:16;;;;;;;;;7.50;6.50;;;;;13.36;86.78;101943.78;4928484;28;45394;-86
2023/11/21 21:33:43;;;;;;;;;11.00;11.00;;;;;13.43;86.31;101965.97;4927341;28;45406;-86
2023/11/21 21:36:12;;;;;;;;;9.25;9.25;;;;;13.24;86.35;101941.38;4911616;28;46804;-86
2023/11/21 21:38:42;;;;;;;;;11.25;9.50;;;;;13.28;85.97;101972.56;4918665;28;45627;-87
2023/11/21 21:41:11;;;;;;;;;10.50;10.50;;;;;13.01;86.58;101925.84;4927959;28;45478;-87
2023/11/21 21:43:39;;;;;;;;;6.50;6.50;;;;;13.26;86.36;101977.97;4929399;28;45733;-87
2023/11/21 21:46:05;;;;;;;;;11.25;8.50;;;;;12.90;86.27;101918.06;4934271;28;47262;-85
2023/11/21 21:48:30;;;;;;;;;9.00;9.00;;;;;12.92;86.34;101930.50;4931702;28;45897;-81
2023/11/21 21:50:56;;;;;;;;;7.50;7.50;;;;;13.28;86.37;102002.97;4921186;28;45433;-82
2023/11/21 21:53:22;;;;;;;;;12.25;10.25;;;;;13.30;86.32;102014.53;4918861;28;45487;-82
2023/11/21 21:55:47;;;;;;;;;11.25;11.25;;;;;13.28;86.36;102016.38;4937654;28;46922;-80
2023/11/21 21:58:13;;;;;;;;;11.75;10.25;;;;;13.09;86.23;101991.75;4909103;28;45539;-85
2023/11/21 22:00:39;;;;;;;;;12.50;9.25;;;;;13.28;86.75;102032.47;4927208;28;45456;-84
2023/11/21 22:03:05;;;;;;;;;14.75;11.50;;;;;13.11;86.39;102006.03;4927788;28;45546;-85
2023/11/21 22:05:31;;;;;;;;;13.50;9.00;;;;;13.03;86.14;101997.28;4919397;28;45814;-85
2023/11/21 22:07:56;;;;;;;;;11.25;8.50;;;;;13.12;86.17;102023.00;4919029;28;45342;-86
2023/11/21 22:10:21;;;;;;;;;9.25;8.00;;;;;13.02;86.53;101994.63;4916848;28;45766;-82
2023/11/21 22:12:46;;;;;;;;;11.00;11.00;;;;;13.16;86.18;102022.91;4908908;28;45289;-85
